sensor_id;sensor_type;location;lat;lon;timestamp;P1;durP1;ratioP1;P2;durP2;ratioP2
65387;SDS011;51992;53.528;49.474;2023-05-02T00:02:13;12.70;;;4.43;;
65387;SDS011;51992;53.528;49.474;2023-05-02T00:04:39;19.63;;;4.63;;
65387;SDS011;51992;53.528;49.474;2023-05-02T00:07:05;7.65;;;4.18;;
65387;SDS011;51992;53.528;49.474;2023-05-02T00:09:31;12.43;;;4.43;;
65387;SDS011;51992;53.528;49.474;2023-05-02T00:11:57;6.72;;;3.65;;
65387;SDS011;51992;53.528;49.474;2023-05-02T00:14:23;9.00;;;3.70;;
65387;SDS011;51992;53.528;49.474;2023-05-02T00:16:49;8.15;;;3.92;;
65387;SDS011;51992;53.528;49.474;2023-05-02T00:19:14;11.63;;;4.30;;
65387;SDS011;51992;53.528;49.474;2023-05-02T00:21:40;9.93;;;3.85;;
65387;SDS011;51992;53.528;49.474;2023-05-02T00:24:06;4.85;;;3.53;;
65387;SDS011;51992;53.528;49.474;2023-05-02T00:26:32;12.80;;;3.97;;
65387;SDS011;51992;53.528;49.474;2023-05-02T00:28:57;9.68;;;3.83;;
65387;SDS011;51992;53.528;49.474;2023-05-02T00:31:23;7.40;;;4.13;;
65387;SDS011;51992;53.528;49.474;2023-05-02T00:33:49;8.63;;;4.10;;
65387;SDS011;51992;53.528;49.474;2023-05-02T00:36:15;11.57;;;4.40;;
65387;SDS011;51992;53.528;49.474;2023-05-02T00:38:41;8.85;;;4.78;;
65387;SDS011;51992;53.528;49.474;2023-05-02T00:41:07;13.88;;;5.25;;
65387;SDS011;51992;53.528;49.474;2023-05-02T00:43:36;10.00;;;4.72;;
65387;SDS011;51992;53.528;49.474;2023-05-02T00:46:04;8.70;;;4.78;;
65387;SDS011;51992;53.528;49.474;2023-05-02T00:48:30;7.78;;;4.80;;
65387;SDS011;51992;53.528;49.474;2023-05-02T00:50:56;11.10;;;5.68;;
65387;SDS011;51992;53.528;49.474;2023-05-02T00:53:23;13.55;;;6.00;;
65387;SDS011;51992;53.528;49.474;2023-05-02T00:55:48;12.57;;;5.47;;
65387;SDS011;51992;53.528;49.474;2023-05-02T00:58:15;9.93;;;5.20;;
65387;SDS011;51992;53.528;49.474;2023-05-02T01:03:19;6.88;;;3.45;;
65387;SDS011;51992;53.528;49.474;2023-05-02T01:06:03;9.07;;;4.85;;
65387;SDS011;51992;53.528;49.474;2023-05-02T01:08:51;19.67;;;7.93;;
65387;SDS011;51992;53.528;49.474;2023-05-02T01:11:27;14.30;;;7.95;;
65387;SDS011;51992;53.528;49.474;2023-05-02T01:13:57;16.10;;;8.55;;
65387;SDS011;51992;53.528;49.474;2023-05-02T01:16:23;16.33;;;8.15;;
65387;SDS011;51992;53.528;49.474;2023-05-02T01:18:49;15.70;;;6.47;;
65387;SDS011;51992;53.528;49.474;2023-05-02T01:21:15;11.25;;;6.15;;
65387;SDS011;51992;53.528;49.474;2023-05-02T01:26:26;19.08;;;8.65;;
65387;SDS011;51992;53.528;49.474;2023-05-02T01:28:54;21.73;;;9.88;;
65387;SDS011;51992;53.528;49.474;2023-05-02T01:31:22;34.38;;;18.40;;
65387;SDS011;51992;53.528;49.474;2023-05-02T01:33:49;35.45;;;18.48;;
65387;SDS011;51992;53.528;49.474;2023-05-02T01:36:16;35.53;;;18.35;;
65387;SDS011;51992;53.528;49.474;2023-05-02T01:38:42;42.58;;;23.15;;
65387;SDS011;51992;53.528;49.474;2023-05-02T01:41:09;34.25;;;17.17;;
65387;SDS011;51992;53.528;49.474;2023-05-02T01:43:35;25.17;;;12.65;;
65387;SDS011;51992;53.528;49.474;2023-05-02T01:46:02;20.00;;;9.73;;
65387;SDS011;51992;53.528;49.474;2023-05-02T01:48:29;16.77;;;9.90;;
65387;SDS011;51992;53.528;49.474;2023-05-02T01:50:55;18.55;;;9.57;;
65387;SDS011;51992;53.528;49.474;2023-05-02T01:53:23;18.83;;;9.77;;
65387;SDS011;51992;53.528;49.474;2023-05-02T01:55:49;15.95;;;8.43;;
65387;SDS011;51992;53.528;49.474;2023-05-02T01:58:16;11.43;;;6.18;;
65387;SDS011;51992;53.528;49.474;2023-05-02T02:00:43;6.63;;;4.30;;
65387;SDS011;51992;53.528;49.474;2023-05-02T02:03:09;5.55;;;4.25;;
65387;SDS011;51992;53.528;49.474;2023-05-02T02:05:39;7.18;;;4.63;;
65387;SDS011;51992;53.528;49.474;2023-05-02T02:08:06;6.55;;;4.60;;
65387;SDS011;51992;53.528;49.474;2023-05-02T02:10:35;7.10;;;5.35;;
65387;SDS011;51992;53.528;49.474;2023-05-02T02:13:12;11.90;;;5.18;;
65387;SDS011;51992;53.528;49.474;2023-05-02T02:15:41;6.55;;;5.00;;
65387;SDS011;51992;53.528;49.474;2023-05-02T02:18:13;9.63;;;5.35;;
65387;SDS011;51992;53.528;49.474;2023-05-02T02:20:43;7.80;;;5.15;;
65387;SDS011;51992;53.528;49.474;2023-05-02T02:23:09;7.25;;;5.57;;
65387;SDS011;51992;53.528;49.474;2023-05-02T02:25:36;9.07;;;6.20;;
65387;SDS011;51992;53.528;49.474;2023-05-02T02:28:02;8.20;;;5.82;;
65387;SDS011;51992;53.528;49.474;2023-05-02T02:30:28;9.63;;;6.40;;
65387;SDS011;51992;53.528;49.474;2023-05-02T02:32:54;8.95;;;5.88;;
65387;SDS011;51992;53.528;49.474;2023-05-02T02:35:20;8.13;;;5.88;;
65387;SDS011;51992;53.528;49.474;2023-05-02T02:37:47;10.23;;;6.93;;
65387;SDS011;51992;53.528;49.474;2023-05-02T02:40:28;12.25;;;6.72;;
65387;SDS011;51992;53.528;49.474;2023-05-02T02:43:02;18.83;;;9.67;;
65387;SDS011;51992;53.528;49.474;2023-05-02T02:45:47;21.20;;;12.20;;
65387;SDS011;51992;53.528;49.474;2023-05-02T02:48:33;28.33;;;18.10;;
65387;SDS011;51992;53.528;49.474;2023-05-02T02:56:32;13.73;;;7.78;;
65387;SDS011;51992;53.528;49.474;2023-05-02T02:59:04;15.55;;;10.45;;
65387;SDS011;51992;53.528;49.474;2023-05-02T03:01:31;20.33;;;10.70;;
65387;SDS011;51992;53.528;49.474;2023-05-02T03:03:57;20.60;;;13.65;;
65387;SDS011;51992;53.528;49.474;2023-05-02T03:06:23;18.63;;;12.82;;
65387;SDS011;51992;53.528;49.474;2023-05-02T03:08:50;20.63;;;12.93;;
65387;SDS011;51992;53.528;49.474;2023-05-02T03:11:16;15.02;;;10.82;;
65387;SDS011;51992;53.528;49.474;2023-05-02T03:13:41;17.98;;;10.40;;
65387;SDS011;51992;53.528;49.474;2023-05-02T03:18:52;15.43;;;8.65;;
65387;SDS011;51992;53.528;49.474;2023-05-02T03:21:18;19.02;;;9.80;;
65387;SDS011;51992;53.528;49.474;2023-05-02T03:23:44;15.35;;;7.53;;
65387;SDS011;51992;53.528;49.474;2023-05-02T03:26:09;7.60;;;5.22;;
65387;SDS011;51992;53.528;49.474;2023-05-02T03:28:35;6.70;;;4.20;;
65387;SDS011;51992;53.528;49.474;2023-05-02T03:31:01;4.72;;;4.07;;
65387;SDS011;51992;53.528;49.474;2023-05-02T03:33:27;6.72;;;4.60;;
65387;SDS011;51992;53.528;49.474;2023-05-02T03:35:53;6.93;;;5.15;;
65387;SDS011;51992;53.528;49.474;2023-05-02T03:38:19;7.38;;;4.63;;
65387;SDS011;51992;53.528;49.474;2023-05-02T03:40:44;9.40;;;4.47;;
65387;SDS011;51992;53.528;49.474;2023-05-02T03:43:10;5.07;;;3.78;;
65387;SDS011;51992;53.528;49.474;2023-05-02T03:45:38;6.65;;;4.18;;
65387;SDS011;51992;53.528;49.474;2023-05-02T03:48:04;6.38;;;4.60;;
65387;SDS011;51992;53.528;49.474;2023-05-02T03:50:30;7.82;;;5.82;;
65387;SDS011;51992;53.528;49.474;2023-05-02T03:52:56;6.97;;;4.95;;
65387;SDS011;51992;53.528;49.474;2023-05-02T03:55:22;15.43;;;5.90;;
65387;SDS011;51992;53.528;49.474;2023-05-02T03:57:48;13.73;;;6.93;;
65387;SDS011;51992;53.528;49.474;2023-05-02T04:00:14;19.10;;;9.82;;
65387;SDS011;51992;53.528;49.474;2023-05-02T04:02:40;25.35;;;13.30;;
65387;SDS011;51992;53.528;49.474;2023-05-02T04:05:06;21.85;;;11.98;;
65387;SDS011;51992;53.528;49.474;2023-05-02T04:07:33;19.45;;;9.07;;
65387;SDS011;51992;53.528;49.474;2023-05-02T04:09:59;13.35;;;6.63;;
65387;SDS011;51992;53.528;49.474;2023-05-02T04:12:28;9.55;;;5.65;;
65387;SDS011;51992;53.528;49.474;2023-05-02T04:14:54;8.20;;;5.55;;
65387;SDS011;51992;53.528;49.474;2023-05-02T04:17:20;8.07;;;4.53;;
65387;SDS011;51992;53.528;49.474;2023-05-02T04:19:46;8.32;;;4.70;;
65387;SDS011;51992;53.528;49.474;2023-05-02T04:22:13;11.20;;;4.97;;
65387;SDS011;51992;53.528;49.474;2023-05-02T04:24:40;4.55;;;4.13;;
65387;SDS011;51992;53.528;49.474;2023-05-02T04:27:06;6.25;;;4.05;;
65387;SDS011;51992;53.528;49.474;2023-05-02T04:29:32;6.70;;;4.07;;
65387;SDS011;51992;53.528;49.474;2023-05-02T04:31:58;8.48;;;4.25;;
65387;SDS011;51992;53.528;49.474;2023-05-02T04:34:23;8.00;;;4.60;;
65387;SDS011;51992;53.528;49.474;2023-05-02T04:36:49;7.00;;;4.20;;
65387;SDS011;51992;53.528;49.474;2023-05-02T04:39:15;7.65;;;4.40;;
65387;SDS011;51992;53.528;49.474;2023-05-02T04:41:41;7.65;;;4.55;;
65387;SDS011;51992;53.528;49.474;2023-05-02T04:44:07;11.80;;;4.47;;
65387;SDS011;51992;53.528;49.474;2023-05-02T04:46:33;7.85;;;4.75;;
65387;SDS011;51992;53.528;49.474;2023-05-02T04:48:59;9.05;;;5.22;;
65387;SDS011;51992;53.528;49.474;2023-05-02T04:51:25;17.80;;;5.22;;
65387;SDS011;51992;53.528;49.474;2023-05-02T04:53:52;16.08;;;5.10;;
65387;SDS011;51992;53.528;49.474;2023-05-02T04:56:18;9.38;;;5.18;;
65387;SDS011;51992;53.528;49.474;2023-05-02T04:58:43;22.83;;;5.55;;
65387;SDS011;51992;53.528;49.474;2023-05-02T05:01:17;9.88;;;5.13;;
65387;SDS011;51992;53.528;49.474;2023-05-02T05:03:43;13.25;;;5.15;;
65387;SDS011;51992;53.528;49.474;2023-05-02T05:06:08;17.10;;;6.15;;
65387;SDS011;51992;53.528;49.474;2023-05-02T05:08:34;12.82;;;6.95;;
65387;SDS011;51992;53.528;49.474;2023-05-02T05:11:00;25.80;;;8.23;;
65387;SDS011;51992;53.528;49.474;2023-05-02T05:13:26;10.45;;;5.70;;
65387;SDS011;51992;53.528;49.474;2023-05-02T05:15:52;10.80;;;6.40;;
65387;SDS011;51992;53.528;49.474;2023-05-02T05:18:19;8.20;;;5.18;;
65387;SDS011;51992;53.528;49.474;2023-05-02T05:20:49;11.18;;;5.65;;
65387;SDS011;51992;53.528;49.474;2023-05-02T05:23:15;10.95;;;5.72;;
65387;SDS011;51992;53.528;49.474;2023-05-02T05:25:40;11.25;;;6.05;;
65387;SDS011;51992;53.528;49.474;2023-05-02T05:28:06;15.93;;;8.00;;
65387;SDS011;51992;53.528;49.474;2023-05-02T05:30:32;20.48;;;8.60;;
65387;SDS011;51992;53.528;49.474;2023-05-02T05:32:58;21.17;;;9.45;;
65387;SDS011;51992;53.528;49.474;2023-05-02T05:35:24;17.58;;;9.50;;
65387;SDS011;51992;53.528;49.474;2023-05-02T05:37:50;43.10;;;11.77;;
65387;SDS011;51992;53.528;49.474;2023-05-02T05:40:16;25.33;;;11.55;;
65387;SDS011;51992;53.528;49.474;2023-05-02T05:42:42;13.63;;;7.50;;
65387;SDS011;51992;53.528;49.474;2023-05-02T05:45:08;11.23;;;6.57;;
65387;SDS011;51992;53.528;49.474;2023-05-02T05:47:34;24.90;;;8.15;;
65387;SDS011;51992;53.528;49.474;2023-05-02T05:50:01;28.83;;;10.60;;
65387;SDS011;51992;53.528;49.474;2023-05-02T05:52:26;38.10;;;8.43;;
65387;SDS011;51992;53.528;49.474;2023-05-02T05:54:52;11.35;;;6.15;;
65387;SDS011;51992;53.528;49.474;2023-05-02T05:57:20;15.13;;;7.35;;
65387;SDS011;51992;53.528;49.474;2023-05-02T05:59:46;24.40;;;10.32;;
65387;SDS011;51992;53.528;49.474;2023-05-02T06:02:12;22.55;;;9.05;;
65387;SDS011;51992;53.528;49.474;2023-05-02T06:04:37;16.55;;;7.65;;
65387;SDS011;51992;53.528;49.474;2023-05-02T06:07:03;11.25;;;6.15;;
65387;SDS011;51992;53.528;49.474;2023-05-02T06:09:29;21.67;;;8.88;;
65387;SDS011;51992;53.528;49.474;2023-05-02T06:11:56;18.10;;;6.93;;
65387;SDS011;51992;53.528;49.474;2023-05-02T06:14:22;15.45;;;6.18;;
65387;SDS011;51992;53.528;49.474;2023-05-02T06:16:48;11.60;;;6.07;;
65387;SDS011;51992;53.528;49.474;2023-05-02T06:19:14;22.50;;;7.03;;
65387;SDS011;51992;53.528;49.474;2023-05-02T06:24:35;16.65;;;6.80;;
65387;SDS011;51992;53.528;49.474;2023-05-02T06:27:02;12.65;;;6.05;;
65387;SDS011;51992;53.528;49.474;2023-05-02T06:29:28;8.90;;;6.07;;
65387;SDS011;51992;53.528;49.474;2023-05-02T06:31:54;12.32;;;5.93;;
65387;SDS011;51992;53.528;49.474;2023-05-02T06:34:20;13.23;;;6.40;;
65387;SDS011;51992;53.528;49.474;2023-05-02T06:36:46;12.20;;;6.30;;
65387;SDS011;51992;53.528;49.474;2023-05-02T06:39:11;14.45;;;5.97;;
65387;SDS011;51992;53.528;49.474;2023-05-02T06:41:37;12.23;;;6.18;;
65387;SDS011;51992;53.528;49.474;2023-05-02T06:44:03;17.38;;;6.35;;
65387;SDS011;51992;53.528;49.474;2023-05-02T06:46:29;7.03;;;5.63;;
65387;SDS011;51992;53.528;49.474;2023-05-02T06:48:58;11.43;;;5.25;;
65387;SDS011;51992;53.528;49.474;2023-05-02T06:51:23;11.60;;;5.63;;
65387;SDS011;51992;53.528;49.474;2023-05-02T06:53:50;9.80;;;6.25;;
65387;SDS011;51992;53.528;49.474;2023-05-02T06:56:17;8.45;;;5.18;;
65387;SDS011;51992;53.528;49.474;2023-05-02T06:58:43;13.80;;;6.32;;
65387;SDS011;51992;53.528;49.474;2023-05-02T07:01:08;7.55;;;4.95;;
65387;SDS011;51992;53.528;49.474;2023-05-02T07:03:34;7.85;;;4.43;;
65387;SDS011;51992;53.528;49.474;2023-05-02T07:06:00;11.30;;;5.22;;
65387;SDS011;51992;53.528;49.474;2023-05-02T07:08:26;19.67;;;5.47;;
65387;SDS011;51992;53.528;49.474;2023-05-02T07:10:51;13.40;;;5.43;;
65387;SDS011;51992;53.528;49.474;2023-05-02T07:13:17;11.07;;;6.70;;
65387;SDS011;51992;53.528;49.474;2023-05-02T07:15:43;15.27;;;6.90;;
65387;SDS011;51992;53.528;49.474;2023-05-02T07:18:09;15.75;;;6.53;;
65387;SDS011;51992;53.528;49.474;2023-05-02T07:20:35;20.45;;;8.85;;
65387;SDS011;51992;53.528;49.474;2023-05-02T07:23:06;11.75;;;4.78;;
65387;SDS011;51992;53.528;49.474;2023-05-02T07:25:31;16.02;;;7.28;;
65387;SDS011;51992;53.528;49.474;2023-05-02T07:27:57;7.45;;;4.68;;
65387;SDS011;51992;53.528;49.474;2023-05-02T07:30:23;6.88;;;4.72;;
65387;SDS011;51992;53.528;49.474;2023-05-02T07:32:49;18.67;;;7.97;;
65387;SDS011;51992;53.528;49.474;2023-05-02T07:35:15;16.05;;;7.18;;
65387;SDS011;51992;53.528;49.474;2023-05-02T07:37:41;17.08;;;8.20;;
65387;SDS011;51992;53.528;49.474;2023-05-02T07:40:07;30.60;;;13.65;;
65387;SDS011;51992;53.528;49.474;2023-05-02T07:42:33;23.13;;;10.70;;
65387;SDS011;51992;53.528;49.474;2023-05-02T07:45:01;15.05;;;4.40;;
65387;SDS011;51992;53.528;49.474;2023-05-02T07:47:26;14.65;;;5.47;;
65387;SDS011;51992;53.528;49.474;2023-05-02T07:49:53;18.27;;;8.07;;
65387;SDS011;51992;53.528;49.474;2023-05-02T07:52:19;27.98;;;8.25;;
65387;SDS011;51992;53.528;49.474;2023-05-02T07:54:46;11.70;;;5.88;;
65387;SDS011;51992;53.528;49.474;2023-05-02T07:57:12;9.00;;;3.83;;
65387;SDS011;51992;53.528;49.474;2023-05-02T07:59:38;10.30;;;3.70;;
65387;SDS011;51992;53.528;49.474;2023-05-02T08:02:04;10.00;;;3.67;;
65387;SDS011;51992;53.528;49.474;2023-05-02T08:04:30;9.15;;;3.83;;
65387;SDS011;51992;53.528;49.474;2023-05-02T08:06:56;14.52;;;4.25;;
65387;SDS011;51992;53.528;49.474;2023-05-02T08:09:21;5.60;;;3.42;;
65387;SDS011;51992;53.528;49.474;2023-05-02T08:11:49;7.15;;;3.50;;
65387;SDS011;51992;53.528;49.474;2023-05-02T08:14:15;10.38;;;3.90;;
65387;SDS011;51992;53.528;49.474;2023-05-02T08:16:41;11.52;;;4.47;;
65387;SDS011;51992;53.528;49.474;2023-05-02T08:19:07;6.22;;;3.67;;
65387;SDS011;51992;53.528;49.474;2023-05-02T08:21:33;8.45;;;3.70;;
65387;SDS011;51992;53.528;49.474;2023-05-02T08:23:59;19.05;;;4.72;;
65387;SDS011;51992;53.528;49.474;2023-05-02T08:26:24;13.77;;;4.28;;
65387;SDS011;51992;53.528;49.474;2023-05-02T08:28:50;6.30;;;3.83;;
65387;SDS011;51992;53.528;49.474;2023-05-02T08:31:16;5.97;;;3.50;;
65387;SDS011;51992;53.528;49.474;2023-05-02T08:33:42;17.13;;;4.88;;
65387;SDS011;51992;53.528;49.474;2023-05-02T08:36:11;9.90;;;3.83;;
65387;SDS011;51992;53.528;49.474;2023-05-02T08:38:37;13.75;;;4.93;;
65387;SDS011;51992;53.528;49.474;2023-05-02T08:41:13;14.27;;;4.65;;
65387;SDS011;51992;53.528;49.474;2023-05-02T08:43:39;8.25;;;3.58;;
65387;SDS011;51992;53.528;49.474;2023-05-02T08:46:08;8.88;;;4.30;;
65387;SDS011;51992;53.528;49.474;2023-05-02T08:48:35;11.50;;;5.63;;
65387;SDS011;51992;53.528;49.474;2023-05-02T08:51:02;14.07;;;5.97;;
65387;SDS011;51992;53.528;49.474;2023-05-02T08:53:31;23.50;;;10.05;;
65387;SDS011;51992;53.528;49.474;2023-05-02T08:55:58;17.23;;;6.93;;
65387;SDS011;51992;53.528;49.474;2023-05-02T08:58:24;21.55;;;7.95;;
65387;SDS011;51992;53.528;49.474;2023-05-02T09:00:50;15.90;;;7.50;;
65387;SDS011;51992;53.528;49.474;2023-05-02T09:03:32;27.00;;;7.78;;
65387;SDS011;51992;53.528;49.474;2023-05-02T09:06:12;18.13;;;5.72;;
65387;SDS011;51992;53.528;49.474;2023-05-02T09:08:38;5.90;;;4.30;;
65387;SDS011;51992;53.528;49.474;2023-05-02T09:11:05;13.73;;;5.93;;
65387;SDS011;51992;53.528;49.474;2023-05-02T09:13:33;23.63;;;8.48;;
65387;SDS011;51992;53.528;49.474;2023-05-02T09:18:36;20.95;;;11.02;;
65387;SDS011;51992;53.528;49.474;2023-05-02T09:21:06;19.10;;;11.27;;
65387;SDS011;51992;53.528;49.474;2023-05-02T09:23:43;20.67;;;11.13;;
65387;SDS011;51992;53.528;49.474;2023-05-02T09:26:21;35.75;;;12.27;;
65387;SDS011;51992;53.528;49.474;2023-05-02T09:28:51;15.13;;;7.78;;
65387;SDS011;51992;53.528;49.474;2023-05-02T09:31:18;11.55;;;5.10;;
65387;SDS011;51992;53.528;49.474;2023-05-02T09:33:44;10.40;;;4.68;;
65387;SDS011;51992;53.528;49.474;2023-05-02T09:36:14;12.98;;;5.47;;
65387;SDS011;51992;53.528;49.474;2023-05-02T09:38:40;15.48;;;5.15;;
65387;SDS011;51992;53.528;49.474;2023-05-02T09:41:06;8.57;;;3.58;;
65387;SDS011;51992;53.528;49.474;2023-05-02T09:43:32;8.65;;;3.88;;
65387;SDS011;51992;53.528;49.474;2023-05-02T09:46:02;12.68;;;4.78;;
65387;SDS011;51992;53.528;49.474;2023-05-02T09:48:29;9.82;;;3.85;;
65387;SDS011;51992;53.528;49.474;2023-05-02T09:50:55;17.38;;;4.72;;
65387;SDS011;51992;53.528;49.474;2023-05-02T09:53:23;12.30;;;4.10;;
65387;SDS011;51992;53.528;49.474;2023-05-02T09:55:58;6.90;;;4.18;;
65387;SDS011;51992;53.528;49.474;2023-05-02T09:58:23;8.27;;;4.00;;
65387;SDS011;51992;53.528;49.474;2023-05-02T10:00:50;11.07;;;4.85;;
65387;SDS011;51992;53.528;49.474;2023-05-02T10:03:18;7.60;;;3.72;;
65387;SDS011;51992;53.528;49.474;2023-05-02T10:05:47;9.57;;;4.00;;
65387;SDS011;51992;53.528;49.474;2023-05-02T10:08:14;7.28;;;4.53;;
65387;SDS011;51992;53.528;49.474;2023-05-02T10:10:46;4.25;;;3.42;;
65387;SDS011;51992;53.528;49.474;2023-05-02T10:13:12;12.50;;;4.75;;
65387;SDS011;51992;53.528;49.474;2023-05-02T10:15:42;17.10;;;7.97;;
65387;SDS011;51992;53.528;49.474;2023-05-02T10:18:11;14.95;;;6.82;;
65387;SDS011;51992;53.528;49.474;2023-05-02T10:20:40;21.27;;;9.57;;
65387;SDS011;51992;53.528;49.474;2023-05-02T10:23:07;13.95;;;6.93;;
65387;SDS011;51992;53.528;49.474;2023-05-02T10:25:34;15.55;;;4.75;;
65387;SDS011;51992;53.528;49.474;2023-05-02T10:28:00;14.40;;;5.13;;
65387;SDS011;51992;53.528;49.474;2023-05-02T10:30:28;9.02;;;4.63;;
65387;SDS011;51992;53.528;49.474;2023-05-02T10:32:55;14.38;;;5.10;;
65387;SDS011;51992;53.528;49.474;2023-05-02T10:35:24;9.32;;;5.10;;
65387;SDS011;51992;53.528;49.474;2023-05-02T10:37:50;13.40;;;4.72;;
65387;SDS011;51992;53.528;49.474;2023-05-02T10:40:17;8.80;;;5.03;;
65387;SDS011;51992;53.528;49.474;2023-05-02T10:42:43;7.18;;;4.22;;
65387;SDS011;51992;53.528;49.474;2023-05-02T10:45:29;14.38;;;5.63;;
65387;SDS011;51992;53.528;49.474;2023-05-02T10:48:15;20.42;;;5.68;;
65387;SDS011;51992;53.528;49.474;2023-05-02T10:50:51;5.35;;;4.28;;
65387;SDS011;51992;53.528;49.474;2023-05-02T10:53:27;7.00;;;4.50;;
65387;SDS011;51992;53.528;49.474;2023-05-02T10:56:06;18.92;;;5.38;;
65387;SDS011;51992;53.528;49.474;2023-05-02T10:58:32;30.38;;;6.30;;
65387;SDS011;51992;53.528;49.474;2023-05-02T11:03:53;11.23;;;5.28;;
65387;SDS011;51992;53.528;49.474;2023-05-02T11:06:19;4.47;;;4.07;;
65387;SDS011;51992;53.528;49.474;2023-05-02T11:08:45;13.93;;;5.25;;
65387;SDS011;51992;53.528;49.474;2023-05-02T11:19:25;44.10;;;9.55;;
65387;SDS011;51992;53.528;49.474;2023-05-02T11:21:51;22.90;;;9.05;;
65387;SDS011;51992;53.528;49.474;2023-05-02T11:29:51;27.35;;;5.80;;
65387;SDS011;51992;53.528;49.474;2023-05-02T11:32:17;20.25;;;5.82;;
65387;SDS011;51992;53.528;49.474;2023-05-02T11:34:42;8.13;;;4.32;;
65387;SDS011;51992;53.528;49.474;2023-05-02T11:37:09;10.63;;;4.53;;
65387;SDS011;51992;53.528;49.474;2023-05-02T11:39:35;15.25;;;5.10;;
65387;SDS011;51992;53.528;49.474;2023-05-02T11:42:01;13.57;;;6.85;;
65387;SDS011;51992;53.528;49.474;2023-05-02T11:44:27;13.48;;;7.20;;
65387;SDS011;51992;53.528;49.474;2023-05-02T11:46:53;32.35;;;10.10;;
65387;SDS011;51992;53.528;49.474;2023-05-02T11:49:20;36.25;;;11.85;;
65387;SDS011;51992;53.528;49.474;2023-05-02T11:51:46;12.02;;;5.57;;
65387;SDS011;51992;53.528;49.474;2023-05-02T11:54:18;24.05;;;7.05;;
65387;SDS011;51992;53.528;49.474;2023-05-02T11:56:44;19.95;;;6.95;;
65387;SDS011;51992;53.528;49.474;2023-05-02T11:59:11;10.95;;;6.30;;
65387;SDS011;51992;53.528;49.474;2023-05-02T12:01:45;17.40;;;7.45;;
65387;SDS011;51992;53.528;49.474;2023-05-02T12:04:11;18.13;;;7.15;;
65387;SDS011;51992;53.528;49.474;2023-05-02T12:06:37;5.63;;;3.65;;
65387;SDS011;51992;53.528;49.474;2023-05-02T12:09:12;10.63;;;4.53;;
65387;SDS011;51992;53.528;49.474;2023-05-02T12:11:40;21.90;;;8.35;;
65387;SDS011;51992;53.528;49.474;2023-05-02T12:14:06;12.02;;;4.80;;
65387;SDS011;51992;53.528;49.474;2023-05-02T12:16:32;12.15;;;5.82;;
65387;SDS011;51992;53.528;49.474;2023-05-02T12:18:58;11.30;;;4.25;;
65387;SDS011;51992;53.528;49.474;2023-05-02T12:21:26;12.73;;;4.40;;
65387;SDS011;51992;53.528;49.474;2023-05-02T12:23:53;11.25;;;4.53;;
65387;SDS011;51992;53.528;49.474;2023-05-02T12:26:21;7.45;;;3.80;;
65387;SDS011;51992;53.528;49.474;2023-05-02T12:28:50;20.25;;;5.15;;
65387;SDS011;51992;53.528;49.474;2023-05-02T12:31:16;11.90;;;3.50;;
65387;SDS011;51992;53.528;49.474;2023-05-02T12:33:42;14.75;;;5.47;;
65387;SDS011;51992;53.528;49.474;2023-05-02T12:36:08;15.23;;;6.03;;
65387;SDS011;51992;53.528;49.474;2023-05-02T12:38:35;28.83;;;9.50;;
65387;SDS011;51992;53.528;49.474;2023-05-02T12:41:01;24.65;;;7.28;;
65387;SDS011;51992;53.528;49.474;2023-05-02T12:43:27;18.83;;;7.28;;
65387;SDS011;51992;53.528;49.474;2023-05-02T12:46:10;32.50;;;7.38;;
65387;SDS011;51992;53.528;49.474;2023-05-02T12:48:36;9.93;;;5.10;;
65387;SDS011;51992;53.528;49.474;2023-05-02T12:51:02;23.65;;;8.02;;
65387;SDS011;51992;53.528;49.474;2023-05-02T12:53:37;14.93;;;6.05;;
65387;SDS011;51992;53.528;49.474;2023-05-02T12:56:04;10.27;;;5.55;;
65387;SDS011;51992;53.528;49.474;2023-05-02T12:58:37;19.27;;;7.32;;
65387;SDS011;51992;53.528;49.474;2023-05-02T13:01:04;14.82;;;6.60;;
65387;SDS011;51992;53.528;49.474;2023-05-02T13:03:32;22.02;;;8.73;;
65387;SDS011;51992;53.528;49.474;2023-05-02T13:05:57;8.95;;;4.63;;
65387;SDS011;51992;53.528;49.474;2023-05-02T13:08:23;12.30;;;3.97;;
65387;SDS011;51992;53.528;49.474;2023-05-02T13:10:49;22.70;;;5.75;;
65387;SDS011;51992;53.528;49.474;2023-05-02T13:13:15;15.32;;;6.55;;
65387;SDS011;51992;53.528;49.474;2023-05-02T13:15:40;33.55;;;10.38;;
65387;SDS011;51992;53.528;49.474;2023-05-02T13:18:06;24.75;;;9.27;;
65387;SDS011;51992;53.528;49.474;2023-05-02T13:20:32;19.42;;;8.07;;
65387;SDS011;51992;53.528;49.474;2023-05-02T13:22:58;15.18;;;5.70;;
65387;SDS011;51992;53.528;49.474;2023-05-02T13:25:24;23.40;;;8.48;;
65387;SDS011;51992;53.528;49.474;2023-05-02T13:27:50;13.02;;;6.45;;
65387;SDS011;51992;53.528;49.474;2023-05-02T13:30:16;11.93;;;5.05;;
65387;SDS011;51992;53.528;49.474;2023-05-02T13:32:42;17.33;;;7.82;;
65387;SDS011;51992;53.528;49.474;2023-05-02T13:35:07;18.92;;;6.40;;
65387;SDS011;51992;53.528;49.474;2023-05-02T13:37:33;5.32;;;4.05;;
65387;SDS011;51992;53.528;49.474;2023-05-02T13:39:59;11.68;;;5.13;;
65387;SDS011;51992;53.528;49.474;2023-05-02T13:42:25;11.48;;;4.35;;
65387;SDS011;51992;53.528;49.474;2023-05-02T13:44:51;4.05;;;3.72;;
65387;SDS011;51992;53.528;49.474;2023-05-02T13:47:17;9.40;;;4.95;;
65387;SDS011;51992;53.528;49.474;2023-05-02T13:49:43;13.45;;;5.78;;
65387;SDS011;51992;53.528;49.474;2023-05-02T13:52:09;6.65;;;5.10;;
65387;SDS011;51992;53.528;49.474;2023-05-02T13:54:35;5.22;;;4.20;;
65387;SDS011;51992;53.528;49.474;2023-05-02T13:57:00;8.27;;;4.78;;
65387;SDS011;51992;53.528;49.474;2023-05-02T13:59:27;7.70;;;5.30;;
65387;SDS011;51992;53.528;49.474;2023-05-02T14:01:52;7.20;;;5.40;;
65387;SDS011;51992;53.528;49.474;2023-05-02T14:04:18;8.52;;;5.57;;
65387;SDS011;51992;53.528;49.474;2023-05-02T14:06:44;11.25;;;5.30;;
65387;SDS011;51992;53.528;49.474;2023-05-02T14:09:10;15.30;;;6.45;;
65387;SDS011;51992;53.528;49.474;2023-05-02T14:11:36;13.15;;;5.43;;
65387;SDS011;51992;53.528;49.474;2023-05-02T14:14:02;7.50;;;5.13;;
65387;SDS011;51992;53.528;49.474;2023-05-02T14:16:27;7.70;;;5.10;;
65387;SDS011;51992;53.528;49.474;2023-05-02T14:18:54;6.63;;;5.57;;
65387;SDS011;51992;53.528;49.474;2023-05-02T14:21:20;7.93;;;5.15;;
65387;SDS011;51992;53.528;49.474;2023-05-02T14:23:46;6.43;;;5.05;;
65387;SDS011;51992;53.528;49.474;2023-05-02T14:26:11;5.63;;;4.63;;
65387;SDS011;51992;53.528;49.474;2023-05-02T14:28:38;5.88;;;5.28;;
65387;SDS011;51992;53.528;49.474;2023-05-02T14:31:04;6.95;;;5.75;;
65387;SDS011;51992;53.528;49.474;2023-05-02T14:33:30;5.82;;;5.25;;
65387;SDS011;51992;53.528;49.474;2023-05-02T14:35:55;6.97;;;6.28;;
65387;SDS011;51992;53.528;49.474;2023-05-02T14:38:21;8.32;;;5.55;;
65387;SDS011;51992;53.528;49.474;2023-05-02T14:40:47;7.40;;;5.88;;
65387;SDS011;51992;53.528;49.474;2023-05-02T14:43:13;10.82;;;6.05;;
65387;SDS011;51992;53.528;49.474;2023-05-02T14:45:38;16.67;;;6.15;;
65387;SDS011;51992;53.528;49.474;2023-05-02T14:48:04;7.97;;;5.55;;
65387;SDS011;51992;53.528;49.474;2023-05-02T14:50:32;18.75;;;9.18;;
65387;SDS011;51992;53.528;49.474;2023-05-02T14:52:58;18.85;;;10.30;;
65387;SDS011;51992;53.528;49.474;2023-05-02T14:55:23;14.85;;;7.30;;
65387;SDS011;51992;53.528;49.474;2023-05-02T14:57:49;12.25;;;5.97;;
65387;SDS011;51992;53.528;49.474;2023-05-02T15:00:15;8.68;;;4.78;;
65387;SDS011;51992;53.528;49.474;2023-05-02T15:02:41;5.70;;;4.25;;